sensor_id;sensor_type;location;lat;lon;timestamp;temperature;humidity
66827;DHT22;53727;45.242;19.796;2022-09-03T00:00:12;461.60;2380.80
66827;DHT22;53727;45.242;19.796;2022-09-03T00:06:04;461.60;2380.80
66827;DHT22;53727;45.242;19.796;2022-09-03T00:11:47;461.40;2380.80
66827;DHT22;53727;45.242;19.796;2022-09-03T00:14:24;461.40;2380.80
66827;DHT22;53727;45.242;19.796;2022-09-03T00:16:54;461.30;2380.80
66827;DHT22;53727;45.242;19.796;2022-09-03T00:19:30;461.30;2380.80
66827;DHT22;53727;45.242;19.796;2022-09-03T00:21:59;461.20;2380.80
66827;DHT22;53727;45.242;19.796;2022-09-03T00:24:32;461.20;2380.80
66827;DHT22;53727;45.242;19.796;2022-09-03T00:27:04;461.20;2380.80
66827;DHT22;53727;45.242;19.796;2022-09-03T00:29:38;461.20;2380.80
66827;DHT22;53727;45.242;19.796;2022-09-03T00:32:10;461.10;2380.80
66827;DHT22;53727;45.242;19.796;2022-09-03T00:34:41;461.10;2380.80
66827;DHT22;53727;45.242;19.796;2022-09-03T00:37:08;461.10;2380.80
66827;DHT22;53727;45.242;19.796;2022-09-03T00:39:35;461.10;2380.80
66827;DHT22;53727;45.242;19.796;2022-09-03T00:55:47;461.00;2380.80
66827;DHT22;53727;45.242;19.796;2022-09-03T00:58:32;461.00;2380.80
66827;DHT22;53727;45.242;19.796;2022-09-03T01:01:07;460.90;2380.80
66827;DHT22;53727;45.242;19.796;2022-09-03T01:03:38;460.90;2380.80
66827;DHT22;53727;45.242;19.796;2022-09-03T01:06:18;460.90;2380.80
66827;DHT22;53727;45.242;19.796;2022-09-03T01:09:20;460.90;2380.80
66827;DHT22;53727;45.242;19.796;2022-09-03T01:25:45;460.80;2380.80
66827;DHT22;53727;45.242;19.796;2022-09-03T01:31:10;436.10;2355.20
66827;DHT22;53727;45.242;19.796;2022-09-03T01:33:49;436.10;2355.20
66827;DHT22;53727;45.242;19.796;2022-09-03T01:36:39;436.00;2355.20
66827;DHT22;53727;45.242;19.796;2022-09-03T01:39:15;436.00;2355.20
66827;DHT22;53727;45.242;19.796;2022-09-03T01:58:32;435.70;2355.20
66827;DHT22;53727;45.242;19.796;2022-09-03T03:36:53;410.30;2355.20
66827;DHT22;53727;45.242;19.796;2022-09-03T03:39:18;410.10;2355.20
66827;DHT22;53727;45.242;19.796;2022-09-03T03:44:11;410.20;2355.20
66827;DHT22;53727;45.242;19.796;2022-09-03T03:46:39;410.00;2355.20
66827;DHT22;53727;45.242;19.796;2022-09-03T03:49:06;409.90;2355.20
66827;DHT22;53727;45.242;19.796;2022-09-03T03:51:33;409.90;2355.20
66827;DHT22;53727;45.242;19.796;2022-09-03T03:53:59;409.90;2355.20
66827;DHT22;53727;45.242;19.796;2022-09-03T03:56:26;409.80;2355.20
66827;DHT22;53727;45.242;19.796;2022-09-03T03:58:52;409.80;2355.20
66827;DHT22;53727;45.242;19.796;2022-09-03T05:35:00;435.40;2355.20
66827;DHT22;53727;45.242;19.796;2022-09-03T05:37:26;410.50;2355.20
66827;DHT22;53727;45.242;19.796;2022-09-03T05:39:52;410.40;2355.20
66827;DHT22;53727;45.242;19.796;2022-09-03T05:42:18;410.40;2355.20
66827;DHT22;53727;45.242;19.796;2022-09-03T05:44:44;435.30;2355.20
66827;DHT22;53727;45.242;19.796;2022-09-03T05:56:55;436.10;2355.20
66827;DHT22;53727;45.242;19.796;2022-09-03T05:59:20;436.00;2355.20
66827;DHT22;53727;45.242;19.796;2022-09-03T06:01:46;436.10;2355.20
66827;DHT22;53727;45.242;19.796;2022-09-03T06:04:15;435.90;2355.20
66827;DHT22;53727;45.242;19.796;2022-09-03T06:06:43;435.50;2355.20
66827;DHT22;53727;45.242;19.796;2022-09-03T06:09:14;435.40;2355.20
66827;DHT22;53727;45.242;19.796;2022-09-03T06:11:44;435.40;2355.20
66827;DHT22;53727;45.242;19.796;2022-09-03T06:14:11;435.60;2355.20
66827;DHT22;53727;45.242;19.796;2022-09-03T06:16:41;435.80;2355.20
66827;DHT22;53727;45.242;19.796;2022-09-03T06:19:08;435.80;2355.20
66827;DHT22;53727;45.242;19.796;2022-09-03T06:21:39;436.10;2355.20
66827;DHT22;53727;45.242;19.796;2022-09-03T06:24:12;461.10;2380.80
66827;DHT22;53727;45.242;19.796;2022-09-03T06:26:38;461.00;2380.80
66827;DHT22;53727;45.242;19.796;2022-09-03T06:29:05;461.40;2380.80
66827;DHT22;53727;45.242;19.796;2022-09-03T06:31:31;486.50;2380.80
66827;DHT22;53727;45.242;19.796;2022-09-03T06:33:56;486.60;2380.80
66827;DHT22;53727;45.242;19.796;2022-09-03T06:36:23;487.00;2380.80
66827;DHT22;53727;45.242;19.796;2022-09-03T06:38:52;487.00;2380.80
66827;DHT22;53727;45.242;19.796;2022-09-03T06:41:20;486.90;2380.80
66827;DHT22;53727;45.242;19.796;2022-09-03T06:43:54;487.00;2380.80
66827;DHT22;53727;45.242;19.796;2022-09-03T07:18:26;537.70;2406.40
66827;DHT22;53727;45.242;19.796;2022-09-03T07:21:00;512.90;2380.80
66827;DHT22;53727;45.242;19.796;2022-09-03T07:28:22;538.30;2406.40
66827;DHT22;53727;45.242;19.796;2022-09-03T07:30:50;538.10;2406.40
66827;DHT22;53727;45.242;19.796;2022-09-03T07:33:16;538.10;2406.40
66827;DHT22;53727;45.242;19.796;2022-09-03T07:35:44;538.10;2406.40
66827;DHT22;53727;45.242;19.796;2022-09-03T07:38:10;538.10;2406.40
66827;DHT22;53727;45.242;19.796;2022-09-03T07:40:37;537.90;2406.40
66827;DHT22;53727;45.242;19.796;2022-09-03T07:43:04;512.80;2380.80
66827;DHT22;53727;45.242;19.796;2022-09-03T07:45:30;512.40;2380.80
66827;DHT22;53727;45.242;19.796;2022-09-03T07:47:57;512.30;2380.80
66827;DHT22;53727;45.242;19.796;2022-09-03T07:50:23;512.00;2380.80
66827;DHT22;53727;45.242;19.796;2022-09-03T07:52:54;512.00;2380.80
66827;DHT22;53727;45.242;19.796;2022-09-03T07:55:20;512.10;2380.80
66827;DHT22;53727;45.242;19.796;2022-09-03T07:57:46;512.00;2380.80
66827;DHT22;53727;45.242;19.796;2022-09-03T08:00:12;487.30;2380.80
66827;DHT22;53727;45.242;19.796;2022-09-03T08:02:38;512.10;2380.80
66827;DHT22;53727;45.242;19.796;2022-09-03T08:05:04;512.20;2380.80
66827;DHT22;53727;45.242;19.796;2022-09-03T08:07:31;512.30;2380.80
66827;DHT22;53727;45.242;19.796;2022-09-03T08:09:57;512.50;2380.80
66827;DHT22;53727;45.242;19.796;2022-09-03T08:12:23;512.40;2380.80
66827;DHT22;53727;45.242;19.796;2022-09-03T08:14:49;512.30;2380.80
66827;DHT22;53727;45.242;19.796;2022-09-03T08:17:15;512.20;2380.80
66827;DHT22;53727;45.242;19.796;2022-09-03T08:19:41;512.30;2380.80
66827;DHT22;53727;45.242;19.796;2022-09-03T08:22:08;512.40;2380.80
66827;DHT22;53727;45.242;19.796;2022-09-03T08:24:37;512.80;2380.80
66827;DHT22;53727;45.242;19.796;2022-09-03T08:27:03;512.90;2380.80
66827;DHT22;53727;45.242;19.796;2022-09-03T08:29:29;537.70;2406.40
66827;DHT22;53727;45.242;19.796;2022-09-03T08:31:55;537.60;2406.40
66827;DHT22;53727;45.242;19.796;2022-09-03T08:34:21;512.90;2380.80
66827;DHT22;53727;45.242;19.796;2022-09-03T08:36:47;512.90;2380.80
66827;DHT22;53727;45.242;19.796;2022-09-03T08:39:13;537.60;2406.40
66827;DHT22;53727;45.242;19.796;2022-09-03T08:42:02;537.60;2406.40
66827;DHT22;53727;45.242;19.796;2022-09-03T08:44:42;512.80;2380.80
66827;DHT22;53727;45.242;19.796;2022-09-03T08:47:25;512.80;2380.80
66827;DHT22;53727;45.242;19.796;2022-09-03T08:50:00;512.50;2380.80
66827;DHT22;53727;45.242;19.796;2022-09-03T08:52:53;512.50;2380.80
66827;DHT22;53727;45.242;19.796;2022-09-03T08:58:20;512.60;2380.80
66827;DHT22;53727;45.242;19.796;2022-09-03T09:09:55;537.90;2406.40
66827;DHT22;53727;45.242;19.796;2022-09-03T09:15:47;538.10;2406.40
66827;DHT22;53727;45.242;19.796;2022-09-03T09:21:38;538.50;2406.40
66827;DHT22;53727;45.242;19.796;2022-09-03T09:23:48;563.40;2432.00
66827;DHT22;53727;45.242;19.796;2022-09-03T09:26:18;563.60;2432.00
66827;DHT22;53727;45.242;19.796;2022-09-03T09:38:40;589.10;2432.00
66827;DHT22;53727;45.242;19.796;2022-09-03T09:41:17;564.00;2432.00
66827;DHT22;53727;45.242;19.796;2022-09-03T09:43:44;563.90;2432.00
66827;DHT22;53727;45.242;19.796;2022-09-03T09:46:19;588.80;2432.00
66827;DHT22;53727;45.242;19.796;2022-09-03T09:48:56;563.90;2432.00
66827;DHT22;53727;45.242;19.796;2022-09-03T09:51:26;588.80;2432.00
66827;DHT22;53727;45.242;19.796;2022-09-03T09:54:11;588.80;2432.00
66827;DHT22;53727;45.242;19.796;2022-09-03T09:56:37;588.80;2432.00
66827;DHT22;53727;45.242;19.796;2022-09-03T09:59:09;563.80;2432.00
66827;DHT22;53727;45.242;19.796;2022-09-03T10:01:39;563.80;2432.00
66827;DHT22;53727;45.242;19.796;2022-09-03T10:04:23;563.90;2432.00
66827;DHT22;53727;45.242;19.796;2022-09-03T10:07:26;563.80;2432.00
66827;DHT22;53727;45.242;19.796;2022-09-03T10:21:14;564.10;2432.00
66827;DHT22;53727;45.242;19.796;2022-09-03T10:26:27;564.10;2432.00
66827;DHT22;53727;45.242;19.796;2022-09-03T10:28:59;564.00;2432.00
66827;DHT22;53727;45.242;19.796;2022-09-03T11:08:22;614.60;2432.00
66827;DHT22;53727;45.242;19.796;2022-09-03T11:10:53;614.50;2432.00
66827;DHT22;53727;45.242;19.796;2022-09-03T11:13:32;614.50;2432.00
66827;DHT22;53727;45.242;19.796;2022-09-03T11:16:05;614.40;2432.00
66827;DHT22;53727;45.242;19.796;2022-09-03T11:19:03;614.70;2432.00
66827;DHT22;53727;45.242;19.796;2022-09-03T11:24:21;640.40;2432.00
66827;DHT22;53727;45.242;19.796;2022-09-03T11:29:45;640.80;2432.00
66827;DHT22;53727;45.242;19.796;2022-09-03T11:34:52;665.60;2432.00
66827;DHT22;53727;45.242;19.796;2022-09-03T11:37:26;640.60;2432.00
66827;DHT22;53727;45.242;19.796;2022-09-03T11:39:56;640.50;2432.00
66827;DHT22;53727;45.242;19.796;2022-09-03T11:42:33;640.40;2432.00
66827;DHT22;53727;45.242;19.796;2022-09-03T11:47:46;640.20;2432.00
66827;DHT22;53727;45.242;19.796;2022-09-03T11:52:49;615.30;2432.00
66827;DHT22;53727;45.242;19.796;2022-09-03T11:55:31;640.40;2432.00
66827;DHT22;53727;45.242;19.796;2022-09-03T11:58:10;640.40;2432.00
66827;DHT22;53727;45.242;19.796;2022-09-03T12:00:37;640.50;2432.00
66827;DHT22;53727;45.242;19.796;2022-09-03T12:03:04;640.60;2432.00
66827;DHT22;53727;45.242;19.796;2022-09-03T12:08:38;666.50;2432.00
66827;DHT22;53727;45.242;19.796;2022-09-03T12:14:37;666.40;2432.00
66827;DHT22;53727;45.242;19.796;2022-09-03T12:22:17;665.90;2432.00
66827;DHT22;53727;45.242;19.796;2022-09-03T12:37:20;691.90;2432.00
66827;DHT22;53727;45.242;19.796;2022-09-03T12:44:52;717.00;2432.00
66827;DHT22;53727;45.242;19.796;2022-09-03T12:47:22;717.10;2355.20
66827;DHT22;53727;45.242;19.796;2022-09-03T12:49:51;717.30;2329.60
66827;DHT22;53727;45.242;19.796;2022-09-03T12:57:30;691.80;2329.60
66827;DHT22;53727;45.242;19.796;2022-09-03T13:00:03;691.70;2432.00
66827;DHT22;53727;45.242;19.796;2022-09-03T13:02:37;691.90;2432.00
66827;DHT22;53727;45.242;19.796;2022-09-03T13:05:12;691.90;2329.60
66827;DHT22;53727;45.242;19.796;2022-09-03T13:07:39;691.20;2355.20
66827;DHT22;53727;45.242;19.796;2022-09-03T13:10:13;666.40;2406.40
66827;DHT22;53727;45.242;19.796;2022-09-03T13:52:15;717.30;2252.80
66827;DHT22;53727;45.242;19.796;2022-09-03T13:54:52;742.40;2329.60
66827;DHT22;53727;45.242;19.796;2022-09-03T13:57:44;742.50;2252.80
66827;DHT22;53727;45.242;19.796;2022-09-03T14:00:13;742.60;2278.40
66827;DHT22;53727;45.242;19.796;2022-09-03T14:03:11;743.10;2150.40
66827;DHT22;53727;45.242;19.796;2022-09-03T14:08:39;768.10;2176.00
66827;DHT22;53727;45.242;19.796;2022-09-03T14:16:43;768.00;2099.20
66827;DHT22;53727;45.242;19.796;2022-09-03T14:21:57;768.00;2099.20
66827;DHT22;53727;45.242;19.796;2022-09-03T14:27:08;742.50;2073.60
66827;DHT22;53727;45.242;19.796;2022-09-03T14:29:35;742.40;2150.40
66827;DHT22;53727;45.242;19.796;2022-09-03T15:00:32;692.00;2176.00
66827;DHT22;53727;45.242;19.796;2022-09-03T15:05:41;691.50;2227.20
66827;DHT22;53727;45.242;19.796;2022-09-03T15:26:49;870.60;1740.80
66827;DHT22;53727;45.242;19.796;2022-09-03T15:29:27;896.70;1587.20
66827;DHT22;53727;45.242;19.796;2022-09-03T16:15:26;794.40;1587.20
66827;DHT22;53727;45.242;19.796;2022-09-03T16:28:58;716.90;1894.40
66827;DHT22;53727;45.242;19.796;2022-09-03T16:31:47;691.70;1945.60
